createdAt,value
2022-08-21T00:00:53.859Z,0.00
2022-08-21T00:01:53.873Z,0.00
2022-08-21T00:02:53.914Z,0.00
2022-08-21T00:03:53.803Z,0.00
2022-08-21T00:04:57.267Z,0.00
2022-08-21T00:05:53.777Z,0.00
2022-08-21T00:06:53.766Z,0.00
2022-08-21T00:07:53.836Z,0.00
2022-08-21T00:08:54.709Z,0.00
2022-08-21T00:09:53.733Z,0.00
2022-08-21T00:10:53.726Z,0.00
2022-08-21T00:11:53.718Z,0.00
2022-08-21T00:12:53.697Z,0.00
2022-08-21T00:13:53.786Z,0.00
2022-08-21T00:14:58.034Z,0.00
2022-08-21T00:15:53.674Z,0.00
2022-08-21T00:16:53.656Z,0.00
2022-08-21T00:17:53.663Z,0.00
2022-08-21T00:18:53.626Z,0.00
2022-08-21T00:19:53.640Z,0.00
2022-08-21T00:20:53.618Z,0.00
2022-08-21T00:21:53.595Z,0.00
2022-08-21T00:22:53.592Z,0.00
2022-08-21T00:23:53.590Z,0.00
2022-08-21T00:24:53.570Z,0.00
2022-08-21T00:25:53.572Z,0.00
2022-08-21T00:26:53.538Z,0.00
2022-08-21T00:27:53.550Z,0.00
2022-08-21T00:28:53.547Z,0.00
2022-08-21T00:29:53.513Z,0.00
2022-08-21T00:30:53.491Z,0.00
2022-08-21T00:31:53.512Z,0.00
2022-08-21T00:32:53.472Z,0.00
2022-08-21T00:34:00.535Z,0.00
2022-08-21T00:34:54.446Z,0.00
2022-08-21T00:35:53.475Z,0.00
2022-08-21T00:36:53.423Z,0.00
2022-08-21T00:37:53.425Z,0.00
2022-08-21T00:38:53.405Z,0.00
2022-08-21T00:39:53.447Z,0.00
2022-08-21T00:40:53.378Z,0.00
2022-08-21T00:41:53.401Z,0.00
2022-08-21T00:42:53.953Z,0.00
2022-08-21T00:43:53.378Z,0.00
2022-08-21T00:44:53.363Z,0.00
2022-08-21T00:45:53.338Z,0.00
2022-08-21T00:46:53.313Z,0.00
2022-08-21T00:47:53.329Z,0.00
2022-08-21T00:48:53.298Z,0.00
2022-08-21T00:49:53.304Z,0.00
2022-08-21T00:50:53.281Z,0.00
2022-08-21T00:51:53.282Z,0.00
2022-08-21T00:52:53.298Z,0.00
2022-08-21T00:53:53.656Z,0.00
2022-08-21T00:54:53.270Z,0.00
2022-08-21T00:55:53.239Z,0.00
2022-08-21T00:56:53.221Z,0.00
2022-08-21T00:57:53.202Z,0.00
2022-08-21T00:58:53.555Z,0.00
2022-08-21T00:59:53.180Z,0.00
2022-08-21T01:00:53.240Z,0.00
2022-08-21T01:01:53.181Z,0.00
2022-08-21T01:02:53.174Z,0.00
2022-08-21T01:03:53.140Z,0.00
2022-08-21T01:04:53.132Z,0.00
2022-08-21T01:05:53.098Z,0.00
2022-08-21T01:06:53.089Z,0.00
2022-08-21T01:07:53.082Z,0.00
2022-08-21T01:08:53.093Z,0.00
2022-08-21T01:09:53.090Z,0.00
2022-08-21T01:10:54.666Z,0.00
2022-08-21T01:11:53.036Z,0.00
2022-08-21T01:12:53.025Z,0.00
2022-08-21T01:13:53.050Z,0.00
2022-08-21T01:14:53.000Z,0.00
2022-08-21T01:15:52.997Z,0.00
2022-08-21T01:16:52.978Z,0.00
2022-08-21T01:17:52.969Z,0.00
2022-08-21T01:18:52.958Z,0.00
2022-08-21T01:19:52.989Z,0.00
2022-08-21T01:20:52.936Z,0.00
2022-08-21T01:21:52.950Z,0.00
2022-08-21T01:22:52.919Z,0.00
2022-08-21T01:23:52.900Z,0.00
2022-08-21T01:24:52.889Z,0.00
2022-08-21T01:25:52.914Z,0.00
2022-08-21T01:26:52.896Z,0.00
2022-08-21T01:27:52.892Z,0.00
2022-08-21T01:28:52.908Z,0.00
2022-08-21T01:29:52.851Z,0.00
2022-08-21T01:30:52.823Z,0.00
2022-08-21T01:31:52.834Z,0.00
2022-08-21T01:32:52.806Z,0.00
2022-08-21T01:33:52.824Z,0.00
2022-08-21T01:34:52.797Z,0.00
2022-08-21T01:35:52.783Z,0.00
2022-08-21T01:36:52.784Z,0.00
2022-08-21T01:37:52.765Z,0.00
2022-08-21T01:38:52.732Z,0.00
2022-08-21T01:39:52.793Z,0.00
2022-08-21T01:40:52.718Z,0.00
2022-08-21T01:41:52.711Z,0.00
2022-08-21T01:42:52.695Z,0.00
2022-08-21T01:43:52.707Z,0.00
2022-08-21T01:44:54.729Z,0.00
2022-08-21T01:45:52.688Z,0.00
2022-08-21T01:46:52.656Z,0.00
2022-08-21T01:47:52.637Z,0.00
2022-08-21T01:48:52.629Z,0.00
2022-08-21T01:49:52.618Z,0.00
2022-08-21T01:50:52.870Z,0.00
2022-08-21T01:51:52.610Z,0.00
2022-08-21T01:52:52.588Z,0.00
2022-08-21T01:53:52.574Z,0.00
2022-08-21T01:54:55.036Z,0.00
2022-08-21T01:55:52.553Z,0.00
2022-08-21T01:56:52.568Z,0.00
2022-08-21T01:57:52.538Z,0.00
2022-08-21T01:58:52.521Z,0.00
2022-08-21T01:59:52.521Z,0.00
2022-08-21T02:00:52.558Z,0.00
2022-08-21T02:01:52.482Z,0.00
2022-08-21T02:02:52.485Z,0.00
2022-08-21T02:03:53.414Z,0.00
2022-08-21T02:04:52.450Z,0.00
2022-08-21T02:05:53.383Z,0.00
2022-08-21T02:06:52.452Z,0.00
2022-08-21T02:07:52.415Z,0.00
2022-08-21T02:08:52.423Z,0.00
2022-08-21T02:09:52.434Z,0.00
2022-08-21T02:10:52.396Z,0.00
2022-08-21T02:11:52.389Z,0.00
2022-08-21T02:12:52.416Z,0.00
2022-08-21T02:13:52.360Z,0.00
2022-08-21T02:14:52.340Z,0.00
2022-08-21T02:15:52.345Z,0.00
2022-08-21T02:16:52.327Z,0.00
2022-08-21T02:17:53.324Z,0.00
2022-08-21T02:18:52.292Z,0.00
2022-08-21T02:19:52.277Z,0.00
2022-08-21T02:20:55.657Z,0.00
2022-08-21T02:21:52.266Z,0.00
2022-08-21T02:22:52.247Z,0.00
2022-08-21T02:23:52.228Z,0.00
2022-08-21T02:24:54.433Z,0.00
2022-08-21T02:25:52.219Z,0.00
2022-08-21T02:26:52.241Z,0.00
2022-08-21T02:27:52.240Z,0.00
2022-08-21T02:28:52.190Z,0.00
2022-08-21T02:29:52.181Z,0.00
2022-08-21T02:30:52.161Z,0.00
2022-08-21T02:31:52.178Z,0.00
2022-08-21T02:32:52.239Z,0.00
2022-08-21T02:33:52.167Z,0.00
2022-08-21T02:34:52.137Z,0.00
2022-08-21T02:35:52.102Z,0.00
2022-08-21T02:36:59.664Z,0.00
2022-08-21T02:37:53.074Z,0.00
2022-08-21T02:38:52.073Z,0.00
2022-08-21T02:39:52.173Z,0.00
2022-08-21T02:40:52.072Z,0.00
2022-08-21T02:41:52.044Z,0.00
2022-08-21T02:42:52.138Z,0.00
2022-08-21T02:43:52.063Z,0.00
2022-08-21T02:44:52.015Z,0.00
2022-08-21T02:45:51.997Z,0.00
2022-08-21T02:46:51.992Z,0.00
2022-08-21T02:47:52.005Z,0.00
2022-08-21T02:48:51.967Z,0.00
2022-08-21T02:49:51.971Z,0.00
2022-08-21T02:50:51.946Z,0.00
2022-08-21T02:51:51.927Z,0.00
2022-08-21T02:52:51.970Z,0.00
2022-08-21T02:53:51.909Z,0.00
2022-08-21T02:54:51.916Z,0.00
2022-08-21T02:55:51.908Z,0.00
2022-08-21T02:56:51.871Z,0.00
2022-08-21T02:57:51.901Z,0.00
2022-08-21T02:58:51.883Z,0.00
2022-08-21T02:59:51.848Z,0.00
2022-08-21T03:00:51.830Z,0.00
2022-08-21T03:01:51.864Z,0.00
2022-08-21T03:02:51.850Z,0.00
2022-08-21T03:03:51.821Z,0.00
2022-08-21T03:04:51.793Z,0.00
2022-08-21T03:05:51.781Z,0.00
2022-08-21T03:06:51.797Z,0.00
2022-08-21T03:07:51.760Z,0.00
2022-08-21T03:08:51.760Z,0.00
2022-08-21T03:09:55.685Z,0.00
2022-08-21T03:10:51.720Z,0.00
2022-08-21T03:11:51.703Z,0.00
2022-08-21T03:12:51.731Z,0.00
2022-08-21T03:13:51.682Z,0.00
2022-08-21T03:14:51.717Z,0.00
2022-08-21T03:15:51.665Z,0.00
2022-08-21T03:16:51.674Z,0.00
2022-08-21T03:17:51.643Z,0.00
2022-08-21T03:18:51.624Z,0.00
2022-08-21T03:19:51.605Z,0.00
2022-08-21T03:20:51.656Z,0.00
2022-08-21T03:21:51.585Z,0.00
2022-08-21T03:22:52.908Z,0.00
2022-08-21T03:23:51.575Z,0.00
2022-08-21T03:24:51.566Z,0.00
2022-08-21T03:25:51.548Z,0.00
2022-08-21T03:26:51.567Z,0.00
2022-08-21T03:27:52.636Z,0.00
2022-08-21T03:28:51.541Z,0.00
2022-08-21T03:29:51.508Z,0.00
2022-08-21T03:30:51.496Z,0.00
2022-08-21T03:31:51.489Z,0.00
2022-08-21T03:32:52.460Z,0.00
2022-08-21T03:33:51.462Z,0.00
2022-08-21T03:34:51.448Z,0.00
2022-08-21T03:35:51.439Z,0.00
2022-08-21T03:36:51.433Z,0.00
2022-08-21T03:37:51.420Z,0.00
2022-08-21T03:38:51.426Z,0.00
2022-08-21T03:39:51.413Z,0.00
2022-08-21T03:40:51.401Z,0.00
2022-08-21T03:41:51.392Z,0.00
2022-08-21T03:42:51.407Z,0.00
2022-08-21T03:43:51.407Z,0.00
2022-08-21T03:44:51.340Z,0.00
2022-08-21T03:45:52.640Z,0.00
2022-08-21T03:46:51.313Z,0.00
2022-08-21T03:47:51.327Z,0.00
2022-08-21T03:48:51.292Z,0.00
2022-08-21T03:49:51.314Z,0.00
2022-08-21T03:50:51.282Z,0.00
2022-08-21T03:51:59.177Z,0.00
2022-08-21T03:52:52.254Z,0.00
2022-08-21T03:53:51.234Z,0.00
2022-08-21T03:54:51.233Z,0.00
2022-08-21T03:55:51.246Z,0.00
2022-08-21T03:56:51.239Z,0.00
2022-08-21T03:57:51.185Z,0.00
2022-08-21T03:58:51.186Z,0.00
2022-08-21T03:59:51.171Z,0.00
2022-08-21T04:00:51.167Z,0.00
2022-08-21T04:01:51.182Z,0.00
2022-08-21T04:02:51.282Z,0.00
2022-08-21T04:03:51.129Z,0.00
2022-08-21T04:04:51.121Z,0.00
2022-08-21T04:05:51.142Z,4.00
2022-08-21T04:06:51.098Z,4.00
2022-08-21T04:07:51.110Z,4.00
2022-08-21T04:08:51.116Z,4.00
2022-08-21T04:09:51.074Z,4.00
2022-08-21T04:10:51.062Z,8.00
2022-08-21T04:11:51.059Z,4.00
2022-08-21T04:12:51.039Z,8.00
2022-08-21T04:13:51.029Z,12.00
2022-08-21T04:14:51.055Z,8.00
2022-08-21T04:15:50.992Z,8.00
2022-08-21T04:16:50.983Z,12.00
2022-08-21T04:17:50.961Z,16.00
2022-08-21T04:18:50.963Z,16.00
2022-08-21T04:19:53.826Z,20.00
2022-08-21T04:20:50.980Z,24.00
2022-08-21T04:21:50.950Z,24.00
2022-08-21T04:22:50.940Z,24.00
2022-08-21T04:23:50.904Z,32.00
2022-08-21T04:24:50.901Z,36.00
2022-08-21T04:25:50.875Z,36.00
2022-08-21T04:26:50.909Z,48.00
2022-08-21T04:27:50.873Z,52.00
2022-08-21T04:28:50.888Z,56.00
2022-08-21T04:29:50.871Z,60.00
2022-08-21T04:30:50.851Z,64.00
2022-08-21T04:31:50.823Z,68.00
2022-08-21T04:32:50.889Z,76.00
2022-08-21T04:33:50.822Z,84.00
2022-08-21T04:34:50.790Z,92.00
2022-08-21T04:35:51.739Z,96.00
2022-08-21T04:36:50.771Z,104.00
2022-08-21T04:37:50.796Z,108.00
2022-08-21T04:38:50.774Z,112.00
2022-08-21T04:39:53.559Z,124.00
2022-08-21T04:40:50.755Z,128.00
2022-08-21T04:41:50.697Z,132.00
2022-08-21T04:42:50.859Z,144.00
2022-08-21T04:43:50.696Z,148.00
2022-08-21T04:44:50.705Z,156.00
2022-08-21T04:45:50.661Z,164.00
2022-08-21T04:46:50.646Z,172.00
2022-08-21T04:47:52.711Z,176.00
2022-08-21T04:48:50.629Z,188.00
2022-08-21T04:49:50.605Z,192.00
2022-08-21T04:50:50.618Z,200.00
2022-08-21T04:51:51.555Z,208.00
2022-08-21T04:52:50.595Z,216.00
2022-08-21T04:53:50.618Z,224.00
2022-08-21T04:54:54.719Z,228.00
2022-08-21T04:55:50.572Z,236.00
2022-08-21T04:56:50.542Z,244.00
2022-08-21T04:57:50.542Z,252.00
2022-08-21T04:58:50.523Z,260.00
2022-08-21T04:59:50.536Z,268.00
2022-08-21T05:00:50.525Z,276.00
2022-08-21T05:01:50.546Z,280.00
2022-08-21T05:02:50.480Z,288.00
2022-08-21T05:03:50.475Z,300.00
2022-08-21T05:04:50.457Z,308.00
2022-08-21T05:05:50.483Z,312.00
2022-08-21T05:06:50.469Z,316.00
2022-08-21T05:07:50.418Z,328.00
2022-08-21T05:08:50.430Z,332.00
2022-08-21T05:09:51.407Z,340.00
2022-08-21T05:10:50.441Z,344.00
2022-08-21T05:11:50.397Z,352.00
2022-08-21T05:12:50.401Z,360.00
2022-08-21T05:13:56.310Z,364.00
2022-08-21T05:14:51.330Z,372.00
2022-08-21T05:15:50.329Z,376.00
2022-08-21T05:16:50.357Z,384.00
2022-08-21T05:17:55.505Z,388.00
2022-08-21T05:18:51.327Z,396.00
2022-08-21T05:19:50.299Z,404.00
2022-08-21T05:20:50.349Z,404.00
2022-08-21T05:21:50.292Z,412.00
2022-08-21T05:22:50.252Z,420.00
2022-08-21T05:23:50.271Z,424.00
2022-08-21T05:24:50.242Z,428.00
2022-08-21T05:25:50.239Z,432.00
2022-08-21T05:26:50.262Z,440.00
2022-08-21T05:27:50.191Z,440.00
2022-08-21T05:28:50.175Z,444.00
2022-08-21T05:29:50.214Z,448.00
2022-08-21T05:30:50.176Z,452.00
2022-08-21T05:31:50.156Z,456.00
2022-08-21T05:32:50.131Z,460.00
2022-08-21T05:33:50.141Z,464.00
2022-08-21T05:34:50.163Z,468.00
2022-08-21T05:35:50.094Z,472.00
2022-08-21T05:36:50.090Z,476.00
2022-08-21T05:37:50.068Z,476.00
2022-08-21T05:38:50.104Z,484.00
2022-08-21T05:40:05.546Z,488.00
2022-08-21T05:40:51.121Z,492.00
2022-08-21T05:41:50.056Z,492.00
2022-08-21T05:42:54.482Z,496.00
2022-08-21T05:43:51.094Z,504.00
2022-08-21T05:44:50.027Z,500.00
2022-08-21T05:45:49.988Z,508.00
2022-08-21T05:46:49.977Z,512.00
2022-08-21T05:47:49.962Z,512.00
2022-08-21T05:48:49.987Z,516.00
2022-08-21T05:49:50.006Z,520.00
2022-08-21T05:50:50.892Z,520.00
2022-08-21T05:51:49.948Z,524.00
2022-08-21T05:52:49.934Z,524.00
2022-08-21T05:53:49.896Z,528.00
2022-08-21T05:54:49.913Z,532.00
2022-08-21T05:55:49.949Z,540.00
2022-08-21T05:56:50.868Z,544.00
2022-08-21T05:57:49.884Z,552.00
2022-08-21T05:58:49.865Z,552.00
2022-08-21T05:59:49.853Z,556.00
2022-08-21T06:00:49.832Z,556.00
2022-08-21T06:01:49.891Z,556.00
2022-08-21T06:02:49.812Z,556.00
2022-08-21T06:03:50.747Z,560.00
2022-08-21T06:04:49.785Z,560.00
2022-08-21T06:05:49.775Z,564.00
2022-08-21T06:06:49.774Z,564.00
2022-08-21T06:07:49.810Z,572.00
2022-08-21T06:08:49.757Z,576.00
2022-08-21T06:09:49.731Z,584.00
2022-08-21T06:10:49.748Z,584.00
2022-08-21T06:11:49.708Z,588.00
2022-08-21T06:12:49.694Z,596.00
2022-08-21T06:13:49.727Z,596.00
2022-08-21T06:14:49.700Z,600.00
2022-08-21T06:15:49.676Z,600.00
2022-08-21T06:16:50.610Z,604.00
2022-08-21T06:17:49.636Z,608.00
2022-08-21T06:18:49.640Z,616.00
2022-08-21T06:19:49.650Z,632.00
2022-08-21T06:20:49.616Z,640.00
2022-08-21T06:21:49.642Z,644.00
2022-08-21T06:22:49.590Z,648.00
2022-08-21T06:23:49.588Z,644.00
2022-08-21T06:24:49.572Z,644.00
2022-08-21T06:25:49.547Z,636.00
2022-08-21T06:26:49.569Z,632.00
2022-08-21T06:27:49.560Z,636.00
2022-08-21T06:28:49.521Z,632.00
2022-08-21T06:29:49.537Z,624.00
2022-08-21T06:30:49.502Z,620.00
2022-08-21T06:31:49.480Z,616.00
2022-08-21T06:32:49.475Z,620.00
2022-08-21T06:33:49.482Z,624.00
2022-08-21T06:34:49.442Z,628.00
2022-08-21T06:35:49.472Z,628.00
2022-08-21T06:36:49.427Z,636.00
2022-08-21T06:37:49.420Z,632.00
2022-08-21T06:38:51.669Z,632.00
2022-08-21T06:39:49.420Z,640.00
2022-08-21T06:40:49.384Z,644.00
2022-08-21T06:41:49.418Z,644.00
2022-08-21T06:42:49.389Z,644.00
2022-08-21T06:43:49.345Z,648.00
2022-08-21T06:44:49.384Z,652.00
2022-08-21T06:45:49.349Z,656.00
2022-08-21T06:46:49.356Z,660.00
2022-08-21T06:47:49.300Z,664.00
2022-08-21T06:48:49.294Z,672.00
2022-08-21T06:49:49.502Z,676.00
2022-08-21T06:50:49.287Z,684.00
2022-08-21T06:51:49.290Z,684.00
2022-08-21T06:52:49.326Z,692.00
2022-08-21T06:53:49.258Z,704.00
2022-08-21T06:54:49.263Z,712.00
2022-08-21T06:55:49.229Z,716.00
2022-08-21T06:56:49.227Z,724.00
2022-08-21T06:57:52.385Z,732.00
2022-08-21T06:58:49.226Z,736.00
2022-08-21T06:59:50.151Z,736.00
2022-08-21T07:00:49.169Z,744.00
2022-08-21T07:01:49.240Z,748.00
2022-08-21T07:02:49.145Z,756.00
2022-08-21T07:03:49.182Z,764.00
2022-08-21T07:04:49.118Z,776.00
2022-08-21T07:05:49.122Z,792.00
2022-08-21T07:06:49.098Z,820.00
2022-08-21T07:07:49.083Z,844.00
2022-08-21T07:08:49.083Z,864.00
2022-08-21T07:09:49.109Z,876.00
2022-08-21T07:10:49.056Z,892.00
2022-08-21T07:11:49.053Z,896.00
2022-08-21T07:12:49.025Z,904.00
2022-08-21T07:13:49.032Z,916.00
2022-08-21T07:14:49.003Z,928.00
2022-08-21T07:15:49.024Z,940.00
2022-08-21T07:16:48.997Z,956.00
2022-08-21T07:17:48.983Z,968.00
2022-08-21T07:18:48.965Z,968.00
2022-08-21T07:19:48.964Z,964.00
2022-08-21T07:20:48.981Z,960.00
2022-08-21T07:21:48.980Z,948.00
2022-08-21T07:22:48.924Z,936.00
2022-08-21T07:23:48.906Z,936.00
2022-08-21T07:24:48.899Z,928.00
2022-08-21T07:25:48.915Z,920.00
2022-08-21T07:26:48.907Z,908.00
2022-08-21T07:27:48.866Z,896.00
2022-08-21T07:28:48.858Z,884.00
2022-08-21T07:29:48.849Z,864.00
2022-08-21T07:30:48.859Z,828.00
2022-08-21T07:31:48.831Z,820.00
2022-08-21T07:32:48.876Z,816.00
2022-08-21T07:33:48.810Z,808.00
2022-08-21T07:34:48.788Z,800.00
2022-08-21T07:35:48.802Z,800.00
2022-08-21T07:36:48.795Z,808.00
2022-08-21T07:37:48.792Z,816.00
2022-08-21T07:38:48.756Z,820.00
2022-08-21T07:39:48.824Z,816.00
2022-08-21T07:40:48.721Z,844.00
2022-08-21T07:41:48.727Z,856.00
2022-08-21T07:42:48.703Z,856.00
2022-08-21T07:43:48.736Z,832.00
2022-08-21T07:44:49.625Z,836.00
2022-08-21T07:45:48.689Z,836.00
2022-08-21T07:46:48.721Z,836.00
2022-08-21T07:47:48.650Z,836.00
2022-08-21T07:48:48.641Z,840.00
2022-08-21T07:49:48.847Z,848.00
2022-08-21T07:50:48.635Z,856.00
2022-08-21T07:51:48.647Z,852.00
2022-08-21T07:52:48.588Z,836.00
2022-08-21T07:53:48.625Z,820.00
2022-08-21T07:54:48.625Z,820.00
2022-08-21T07:55:48.584Z,840.00
2022-08-21T07:56:48.559Z,836.00
2022-08-21T07:57:48.567Z,820.00
2022-08-21T07:58:48.529Z,836.00
2022-08-21T07:59:48.557Z,844.00
2022-08-21T08:00:48.500Z,840.00
2022-08-21T08:01:48.509Z,836.00
2022-08-21T08:02:48.519Z,832.00
2022-08-21T08:03:48.481Z,832.00
2022-08-21T08:04:50.777Z,840.00
2022-08-21T08:05:48.490Z,824.00
2022-08-21T08:06:48.435Z,828.00
2022-08-21T08:07:48.431Z,824.00
2022-08-21T08:08:48.425Z,828.00
2022-08-21T08:09:48.416Z,828.00
2022-08-21T08:10:48.435Z,800.00
2022-08-21T08:11:48.393Z,784.00
2022-08-21T08:12:48.384Z,764.00
2022-08-21T08:13:48.410Z,748.00
2022-08-21T08:14:48.377Z,768.00
2022-08-21T08:15:48.373Z,760.00
2022-08-21T08:16:48.342Z,768.00
2022-08-21T08:17:48.335Z,788.00
2022-08-21T08:18:48.309Z,804.00
2022-08-21T08:19:48.297Z,816.00
2022-08-21T08:20:48.311Z,832.00
2022-08-21T08:21:48.277Z,840.00
2022-08-21T08:22:50.126Z,852.00
2022-08-21T08:23:48.258Z,824.00
2022-08-21T08:24:48.253Z,864.00
2022-08-21T08:25:48.242Z,852.00
2022-08-21T08:26:49.008Z,904.00
2022-08-21T08:27:49.236Z,924.00
2022-08-21T08:28:48.200Z,940.00
2022-08-21T08:29:48.209Z,972.00
2022-08-21T08:30:48.186Z,996.00
2022-08-21T08:31:48.197Z,1028.00
2022-08-21T08:32:48.222Z,1068.00
2022-08-21T08:33:48.151Z,1112.00
2022-08-21T08:34:48.168Z,1184.00
2022-08-21T08:35:48.150Z,1268.00
2022-08-21T08:36:48.111Z,1380.00
2022-08-21T08:37:52.366Z,1496.00
2022-08-21T08:38:48.141Z,1696.00
2022-08-21T08:39:48.166Z,1844.00
2022-08-21T08:40:48.084Z,1952.00
2022-08-21T08:41:48.063Z,2056.00
2022-08-21T08:42:48.043Z,2148.00
2022-08-21T08:43:48.052Z,2208.00
2022-08-21T08:44:48.057Z,2156.00
2022-08-21T08:45:48.019Z,2252.00
2022-08-21T08:46:48.027Z,2248.00
2022-08-21T08:47:48.036Z,2228.00
2022-08-21T08:48:52.882Z,2068.00
2022-08-21T08:49:47.975Z,1976.00
2022-08-21T08:50:47.956Z,1884.00
2022-08-21T08:51:47.974Z,1848.00
2022-08-21T08:52:48.932Z,1812.00
2022-08-21T08:53:47.947Z,1800.00
2022-08-21T08:54:47.912Z,1640.00
2022-08-21T08:55:47.940Z,1504.00
2022-08-21T08:56:47.895Z,1532.00
2022-08-21T08:57:49.389Z,1492.00
2022-08-21T08:58:47.867Z,1564.00
2022-08-21T08:59:47.864Z,1688.00
2022-08-21T09:00:47.918Z,1616.00
2022-08-21T09:01:47.946Z,1400.00
2022-08-21T09:02:47.833Z,1268.00
2022-08-21T09:03:47.857Z,1080.00
2022-08-21T09:04:47.800Z,1124.00
2022-08-21T09:05:47.794Z,1132.00
2022-08-21T09:06:47.842Z,1000.00
2022-08-21T09:07:47.788Z,1016.00
2022-08-21T09:08:47.762Z,976.00
2022-08-21T09:09:47.798Z,960.00
2022-08-21T09:10:47.789Z,952.00
2022-08-21T09:11:47.729Z,968.00
2022-08-21T09:12:47.723Z,900.00
2022-08-21T09:13:47.706Z,888.00
2022-08-21T09:14:47.712Z,916.00
2022-08-21T09:15:47.719Z,936.00
2022-08-21T09:16:47.670Z,944.00
2022-08-21T09:17:47.676Z,992.00
2022-08-21T09:18:47.671Z,984.00
2022-08-21T09:19:47.645Z,1020.00
2022-08-21T09:20:47.616Z,1148.00
2022-08-21T09:21:47.649Z,1220.00
2022-08-21T09:22:47.606Z,1292.00
2022-08-21T09:23:47.587Z,1352.00
2022-08-21T09:24:51.394Z,1388.00
2022-08-21T09:25:47.603Z,1384.00
2022-08-21T09:26:48.517Z,1364.00
2022-08-21T09:27:47.557Z,1376.00
2022-08-21T09:28:47.553Z,1384.00
2022-08-21T09:29:47.560Z,1348.00
2022-08-21T09:30:47.518Z,1272.00
2022-08-21T09:31:47.515Z,1188.00
2022-08-21T09:32:47.490Z,1120.00
2022-08-21T09:33:47.496Z,1040.00
2022-08-21T09:34:47.536Z,1016.00
2022-08-21T09:35:47.475Z,1124.00
2022-08-21T09:36:47.468Z,1268.00
2022-08-21T09:37:47.465Z,1328.00
2022-08-21T09:38:47.428Z,1236.00
2022-08-21T09:39:48.906Z,1308.00
2022-08-21T09:40:47.435Z,1292.00
2022-08-21T09:41:47.413Z,1204.00
2022-08-21T09:42:47.391Z,1228.00
2022-08-21T09:43:47.411Z,1232.00
2022-08-21T09:44:47.356Z,1256.00
2022-08-21T09:45:47.381Z,1292.00
2022-08-21T09:46:47.422Z,1320.00
2022-08-21T09:47:47.340Z,1344.00
2022-08-21T09:48:47.323Z,1376.00
2022-08-21T09:49:47.353Z,1444.00
2022-08-21T09:50:47.309Z,1540.00
2022-08-21T09:51:47.321Z,1692.00
2022-08-21T09:52:47.277Z,1828.00
2022-08-21T09:53:47.286Z,1876.00
2022-08-21T09:54:47.285Z,1864.00
2022-08-21T09:55:47.243Z,1800.00
2022-08-21T09:56:47.245Z,1696.00
2022-08-21T09:57:50.177Z,1472.00
2022-08-21T09:58:48.277Z,1480.00
2022-08-21T09:59:47.214Z,1420.00
2022-08-21T10:00:47.253Z,1308.00
2022-08-21T10:01:47.169Z,1284.00
2022-08-21T10:02:47.174Z,1368.00
2022-08-21T10:03:47.144Z,1356.00
2022-08-21T10:04:47.213Z,1324.00
2022-08-21T10:05:47.140Z,1296.00
2022-08-21T10:06:47.112Z,1296.00
2022-08-21T10:07:47.118Z,1280.00
2022-08-21T10:08:47.092Z,1304.00
2022-08-21T10:09:47.091Z,1360.00
2022-08-21T10:10:47.105Z,1448.00
2022-08-21T10:11:47.099Z,1512.00
2022-08-21T10:12:47.066Z,1536.00
2022-08-21T10:13:47.051Z,1540.00
2022-08-21T10:14:47.042Z,1632.00
2022-08-21T10:15:47.039Z,1688.00
2022-08-21T10:16:47.022Z,1756.00
2022-08-21T10:17:46.992Z,1856.00
2022-08-21T10:18:47.010Z,1968.00
2022-08-21T10:19:47.646Z,2068.00
2022-08-21T10:20:46.951Z,2160.00
2022-08-21T10:21:46.995Z,2268.00
2022-08-21T10:22:46.934Z,2328.00
2022-08-21T10:23:46.939Z,2408.00
2022-08-21T10:24:50.752Z,2504.00
2022-08-21T10:25:50.502Z,2600.00
2022-08-21T10:26:47.951Z,2592.00
2022-08-21T10:27:46.887Z,2680.00
2022-08-21T10:28:46.901Z,2728.00
2022-08-21T10:29:46.899Z,2832.00
2022-08-21T10:30:46.867Z,2964.00
2022-08-21T10:31:47.544Z,3060.00
2022-08-21T10:32:46.846Z,3072.00
2022-08-21T10:33:46.817Z,3180.00
2022-08-21T10:34:46.837Z,3252.00
2022-08-21T10:35:46.800Z,3332.00
2022-08-21T10:36:46.785Z,3368.00
2022-08-21T10:37:46.783Z,3392.00
2022-08-21T10:38:58.691Z,3412.00
2022-08-21T10:39:49.345Z,3400.00
2022-08-21T10:40:46.745Z,3408.00
2022-08-21T10:41:46.752Z,3404.00
2022-08-21T10:42:46.709Z,3460.00
2022-08-21T10:43:46.723Z,3420.00
2022-08-21T10:44:46.717Z,3660.00
2022-08-21T10:45:46.713Z,3760.00
2022-08-21T10:46:46.685Z,3888.00
2022-08-21T10:47:46.686Z,3952.00
2022-08-21T10:48:46.681Z,4084.00
2022-08-21T10:49:46.651Z,4008.00
2022-08-21T10:50:46.654Z,4148.00
2022-08-21T10:51:46.647Z,4156.00
2022-08-21T10:52:46.634Z,4320.00
2022-08-21T10:53:46.662Z,4488.00
2022-08-21T10:54:46.650Z,4476.00
2022-08-21T10:55:46.606Z,4528.00
2022-08-21T10:56:50.493Z,4468.00
2022-08-21T10:57:47.593Z,4464.00
2022-08-21T10:58:46.563Z,4532.00
2022-08-21T10:59:46.543Z,4496.00
2022-08-21T11:00:46.575Z,4520.00
2022-08-21T11:01:46.532Z,4456.00
2022-08-21T11:02:46.549Z,4504.00
2022-08-21T11:03:46.537Z,4552.00
2022-08-21T11:04:49.024Z,4596.00
2022-08-21T11:05:50.517Z,4548.00
2022-08-21T11:06:46.514Z,4468.00
2022-08-21T11:07:46.455Z,4560.00
2022-08-21T11:08:47.007Z,4512.00
2022-08-21T11:09:46.473Z,4412.00
2022-08-21T11:10:58.081Z,4412.00
2022-08-21T11:11:54.680Z,4244.00
2022-08-21T11:12:47.390Z,4176.00
2022-08-21T11:13:46.433Z,3992.00
2022-08-21T11:14:49.907Z,3784.00
2022-08-21T11:15:46.407Z,3668.00
2022-08-21T11:16:46.357Z,3328.00
2022-08-21T11:17:46.332Z,3188.00
2022-08-21T11:18:46.320Z,2992.00
2022-08-21T11:19:46.355Z,2800.00
2022-08-21T11:20:46.315Z,2768.00
2022-08-21T11:21:46.330Z,2736.00
2022-08-21T11:22:46.301Z,2812.00
2022-08-21T11:23:46.262Z,2900.00
2022-08-21T11:24:46.250Z,3168.00
2022-08-21T11:25:46.246Z,3328.00
2022-08-21T11:26:46.264Z,3384.00
2022-08-21T11:27:47.221Z,3164.00
2022-08-21T11:28:46.231Z,3084.00
2022-08-21T11:29:46.216Z,3024.00
2022-08-21T11:30:46.215Z,2824.00
2022-08-21T11:31:46.217Z,2964.00
2022-08-21T11:32:46.180Z,2924.00
2022-08-21T11:33:46.155Z,2884.00
2022-08-21T11:34:46.139Z,3136.00
2022-08-21T11:35:46.136Z,3284.00
2022-08-21T11:36:47.339Z,3308.00
2022-08-21T11:37:46.145Z,3140.00
2022-08-21T11:38:46.107Z,2764.00
2022-08-21T11:39:46.145Z,2664.00
2022-08-21T11:40:46.089Z,2668.00
2022-08-21T11:41:46.099Z,2828.00
2022-08-21T11:42:46.116Z,3208.00
2022-08-21T11:43:46.062Z,3380.00
2022-08-21T11:44:46.041Z,3468.00
2022-08-21T11:45:46.029Z,3660.00
2022-08-21T11:46:46.082Z,4248.00
2022-08-21T11:47:46.043Z,4676.00
2022-08-21T11:48:46.015Z,5436.00
2022-08-21T11:49:46.041Z,5384.00
2022-08-21T11:50:45.981Z,4320.00
2022-08-21T11:51:45.966Z,4496.00
2022-08-21T11:52:45.951Z,5152.00
2022-08-21T11:53:45.944Z,5872.00
2022-08-21T11:54:45.966Z,6164.00
2022-08-21T11:55:45.973Z,5732.00
2022-08-21T11:56:45.924Z,5180.00
2022-08-21T11:57:45.893Z,4372.00
2022-08-21T11:58:45.896Z,4456.00
2022-08-21T11:59:45.916Z,3820.00
2022-08-21T12:00:45.887Z,3516.00
2022-08-21T12:01:45.953Z,4020.00
2022-08-21T12:02:45.875Z,3720.00
2022-08-21T12:03:45.829Z,3448.00
2022-08-21T12:04:46.915Z,3388.00
2022-08-21T12:05:45.841Z,3612.00
2022-08-21T12:06:45.851Z,3840.00
2022-08-21T12:07:45.777Z,3700.00
2022-08-21T12:08:45.865Z,3748.00
2022-08-21T12:09:45.801Z,4080.00
2022-08-21T12:10:45.785Z,3928.00
2022-08-21T12:11:45.749Z,4224.00
2022-08-21T12:12:45.772Z,4960.00
2022-08-21T12:13:45.732Z,5808.00
2022-08-21T12:14:45.728Z,5700.00
2022-08-21T12:15:45.709Z,5368.00
2022-08-21T12:16:45.716Z,4972.00
2022-08-21T12:17:45.700Z,4476.00
2022-08-21T12:18:45.750Z,4368.00
2022-08-21T12:19:46.610Z,4200.00
2022-08-21T12:20:50.391Z,4024.00
2022-08-21T12:21:46.634Z,4216.00
2022-08-21T12:22:45.622Z,4504.00
2022-08-21T12:23:46.640Z,4516.00
2022-08-21T12:24:45.673Z,5028.00
2022-08-21T12:25:45.632Z,5620.00
2022-08-21T12:26:45.586Z,5904.00
2022-08-21T12:27:45.573Z,6436.00
2022-08-21T12:28:45.588Z,6600.00
2022-08-21T12:29:45.623Z,6968.00
2022-08-21T12:30:45.549Z,7636.00
2022-08-21T12:31:45.530Z,6500.00
2022-08-21T12:32:45.518Z,6352.00
2022-08-21T12:33:45.525Z,7068.00
2022-08-21T12:34:45.549Z,7132.00
2022-08-21T12:35:45.508Z,7764.00
2022-08-21T12:36:45.477Z,9356.00
2022-08-21T12:37:45.475Z,33056.00